Time;durP1;ratioP1;P1;durP2;ratioP2;P2;SDS_P1;SDS_P2;PMS_P1;PMS_P2;Temp;Humidity;BMP_temperature;BMP_pressure;BME280_temperature;BME280_humidity;BME280_pressure;Samples;Min_cycle;Max_cycle;Signal;HPM_P1;HPM_P2
2022/05/17 00:00:47;;;;;;;5.97;2.10;;;;;;;16.92;66.39;102022.44;5074896;28;20031;-51
2022/05/17 00:03:14;;;;;;;6.07;2.22;;;;;;;16.84;66.85;102022.31;5076649;28;20035;-50
2022/05/17 00:05:43;;;;;;;5.18;1.90;;;;;;;16.73;67.09;102028.13;5076643;28;20139;-52
2022/05/17 00:08:10;;;;;;;6.47;2.08;;;;;;;16.78;66.91;102024.78;5075451;28;20117;-48
2022/05/17 00:10:36;;;;;;;6.80;2.10;;;;;;;16.72;67.06;102026.38;5078648;28;20058;-52
2022/05/17 00:13:03;;;;;;;8.77;2.28;;;;;;;16.67;67.40;102023.63;5077414;28;20083;-52
2022/05/17 00:15:29;;;;;;;5.97;2.15;;;;;;;16.60;67.67;102020.03;5076791;28;20792;-51
2022/05/17 00:17:54;;;;;;;6.75;2.10;;;;;;;16.55;67.63;102021.63;5076369;28;20047;-45
2022/05/17 00:20:21;;;;;;;5.22;2.10;;;;;;;16.47;67.93;102012.81;5078370;28;20043;-49
2022/05/17 00:22:46;;;;;;;5.43;2.20;;;;;;;16.49;67.97;102010.25;5076452;28;20032;-52
2022/05/17 00:25:14;;;;;;;6.80;2.08;;;;;;;16.56;67.75;102007.84;5076447;28;20085;-52
2022/05/17 00:27:40;;;;;;;6.43;2.13;;;;;;;16.49;68.25;102005.94;5074555;28;20089;-48
2022/05/17 00:30:07;;;;;;;5.78;2.17;;;;;;;16.53;67.89;102006.88;5075965;28;20036;-48
2022/05/17 00:32:33;;;;;;;6.63;2.30;;;;;;;16.47;68.01;102004.16;5077412;28;20480;-49
2022/05/17 00:34:58;;;;;;;9.48;2.30;;;;;;;16.39;67.95;102001.41;5075819;28;20031;-52
2022/05/17 00:37:24;;;;;;;7.65;2.08;;;;;;;16.40;68.20;101999.69;5073893;28;20041;-53
2022/05/17 00:39:49;;;;;;;6.50;2.25;;;;;;;16.45;68.26;102008.44;5075656;28;20119;-50
2022/05/17 00:42:15;;;;;;;4.47;2.10;;;;;;;16.45;68.20;102006.72;5075159;28;20521;-44
2022/05/17 00:44:43;;;;;;;7.35;2.35;;;;;;;16.49;67.87;102002.47;5077840;28;20024;-52
2022/05/17 00:47:28;;;;;;;6.63;2.33;;;;;;;16.46;68.05;102005.00;5072803;28;20507;-44
2022/05/17 00:50:02;;;;;;;7.50;2.63;;;;;;;16.38;68.46;102006.53;5073184;28;20024;-49
2022/05/17 00:52:45;;;;;;;6.57;2.72;;;;;;;16.38;68.23;102001.34;5071286;28;20103;-51
2022/05/17 00:55:36;;;;;;;8.85;2.78;;;;;;;16.40;68.20;102000.56;5074557;28;20034;-51
2022/05/17 00:58:09;;;;;;;6.20;2.50;;;;;;;16.40;68.58;101997.09;5075979;28;20467;-46
2022/05/17 01:00:42;;;;;;;7.40;2.53;;;;;;;16.38;68.64;102004.84;5079001;28;20051;-53
2022/05/17 01:03:12;;;;;;;5.30;2.42;;;;;;;16.31;68.96;102002.94;5077735;28;20075;-51
2022/05/17 01:05:44;;;;;;;7.28;2.53;;;;;;;16.27;69.26;102003.72;5076759;28;20386;-50
2022/05/17 01:08:12;;;;;;;9.05;2.70;;;;;;;16.23;69.33;101996.69;5075567;28;20511;-50
2022/05/17 01:10:38;;;;;;;6.18;2.60;;;;;;;16.20;69.17;101999.19;5075608;28;20111;-49
2022/05/17 01:15:48;;;;;;;8.55;2.83;;;;;;;16.18;69.36;101988.78;5075883;28;20560;-51
2022/05/17 01:18:13;;;;;;;7.95;2.97;;;;;;;16.16;69.67;101987.03;5076427;28;20107;-53
2022/05/17 01:20:39;;;;;;;6.75;2.80;;;;;;;16.16;69.84;101981.84;5078008;28;20050;-52
2022/05/17 01:23:04;;;;;;;9.15;3.08;;;;;;;16.18;69.77;101978.41;5073342;28;20040;-48
2022/05/17 01:25:30;;;;;;;9.88;3.25;;;;;;;16.17;69.98;101983.59;5076208;28;20032;-48
2022/05/17 01:28:09;;;;;;;10.27;3.28;;;;;;;16.27;69.73;101988.16;5074812;28;20036;-50
2022/05/17 01:30:34;;;;;;;7.85;3.42;;;;;;;16.23;70.14;101996.69;5078010;28;20385;-52
2022/05/17 01:33:00;;;;;;;9.13;2.92;;;;;;;16.23;69.92;101988.91;5078258;28;20038;-48
2022/05/17 01:35:26;;;;;;;8.05;3.20;;;;;;;16.23;69.93;101992.38;5073816;28;20024;-52
2022/05/17 01:37:54;;;;;;;7.65;3.45;;;;;;;16.23;70.06;102001.88;5072035;28;20468;-51
2022/05/17 01:40:20;;;;;;;12.30;3.30;;;;;;;16.25;70.02;101995.00;5073151;28;20131;-49
2022/05/17 01:42:45;;;;;;;8.15;3.20;;;;;;;16.23;70.47;102001.88;5075041;28;20032;-45
2022/05/17 01:45:11;;;;;;;10.27;3.28;;;;;;;16.31;70.40;102000.34;5080959;28;20114;-48
2022/05/17 01:47:37;;;;;;;7.68;3.20;;;;;;;16.33;70.75;101991.75;5080554;28;20036;-53
2022/05/17 01:50:04;;;;;;;8.57;3.35;;;;;;;16.39;70.12;101993.63;5077765;28;20408;-49
2022/05/17 01:52:29;;;;;;;9.35;3.53;;;;;;;16.42;70.36;101996.25;5079537;28;20047;-47
2022/05/17 01:54:54;;;;;;;10.13;3.80;;;;;;;16.38;70.26;101994.47;5078497;28;20036;-45
2022/05/17 01:57:20;;;;;;;10.00;3.72;;;;;;;16.38;70.05;101996.16;5078229;28;20055;-50
2022/05/17 01:59:45;;;;;;;11.20;3.55;;;;;;;16.34;70.18;101992.63;5083687;28;20040;-50
2022/05/17 02:02:11;;;;;;;10.82;4.00;;;;;;;16.36;70.13;101993.53;5078514;28;21736;-52
2022/05/17 02:04:36;;;;;;;10.43;3.60;;;;;;;16.33;70.27;101996.94;5081312;28;20051;-47
2022/05/17 02:07:01;;;;;;;10.18;4.13;;;;;;;16.32;70.26;101999.50;5079012;28;20582;-48
2022/05/17 02:09:27;;;;;;;10.77;3.97;;;;;;;16.33;70.22;101999.53;5076261;28;20085;-51
2022/05/17 02:11:52;;;;;;;11.35;5.25;;;;;;;16.32;70.20;101997.78;5076833;28;20400;-52
2022/05/17 02:14:18;;;;;;;9.35;4.10;;;;;;;16.37;70.38;101995.28;5082467;28;20028;-48
2022/05/17 02:16:43;;;;;;;11.98;4.25;;;;;;;16.32;70.16;101996.91;5079282;28;21053;-47
2022/05/17 02:19:09;;;;;;;9.32;4.05;;;;;;;16.35;70.51;101989.19;5078723;28;20483;-48
2022/05/17 02:21:36;;;;;;;12.27;4.75;;;;;;;16.31;70.36;101992.53;5078983;28;20203;-53
2022/05/17 02:24:03;;;;;;;11.20;4.45;;;;;;;16.36;70.42;101993.53;5081867;28;20152;-50
2022/05/17 02:26:29;;;;;;;9.93;4.38;;;;;;;16.32;70.63;102002.97;5078949;28;20027;-48
2022/05/17 02:28:55;;;;;;;9.10;4.00;;;;;;;16.30;70.62;101999.47;5082670;28;20039;-47
2022/05/17 02:31:20;;;;;;;9.18;3.95;;;;;;;16.31;70.88;102008.13;5079385;28;20141;-52
2022/05/17 02:33:46;;;;;;;9.65;4.00;;;;;;;16.32;70.84;102008.19;5081121;28;20111;-52
2022/05/17 02:36:12;;;;;;;11.32;4.10;;;;;;;16.34;70.79;102001.28;5079487;28;20112;-49
2022/05/17 02:38:38;;;;;;;11.50;4.00;;;;;;;16.36;71.10;102009.97;5080592;28;20596;-51
2022/05/17 02:41:03;;;;;;;9.52;4.13;;;;;;;16.34;70.59;102001.28;5077795;28;20032;-50
2022/05/17 02:43:29;;;;;;;8.85;4.13;;;;;;;16.41;71.05;102010.09;5077197;28;20040;-49
2022/05/17 02:45:54;;;;;;;10.82;4.25;;;;;;;16.43;70.95;102010.13;5080996;28;20036;-44
2022/05/17 02:48:20;;;;;;;7.90;3.92;;;;;;;16.43;70.75;102010.13;5079132;28;20024;-49
2022/05/17 02:50:45;;;;;;;12.68;4.50;;;;;;;16.36;70.89;102014.28;5074667;28;20108;-52
2022/05/17 02:53:10;;;;;;;11.02;4.00;;;;;;;16.36;70.69;102019.47;5074018;28;20094;-46
2022/05/17 02:55:36;;;;;;;12.63;4.15;;;;;;;16.38;70.86;102016.91;5079528;28;20024;-51
2022/05/17 02:58:02;;;;;;;12.18;4.30;;;;;;;16.34;70.68;102011.66;5076842;28;20052;-53
2022/05/17 03:00:27;;;;;;;10.45;4.47;;;;;;;16.36;70.63;102014.28;5076155;28;20039;-47
2022/05/17 03:02:53;;;;;;;8.75;4.30;;;;;;;16.40;70.65;102018.72;5083526;28;20445;-50
2022/05/17 03:05:20;;;;;;;11.77;4.65;;;;;;;16.41;70.34;102015.28;5082410;28;20103;-52
2022/05/17 03:07:45;;;;;;;8.70;4.00;;;;;;;16.39;70.72;102019.56;5083077;28;20038;-52
2022/05/17 03:10:11;;;;;;;11.35;5.07;;;;;;;16.32;70.37;102018.56;5081809;28;20119;-52
2022/05/17 03:12:37;;;;;;;12.27;4.25;;;;;;;16.25;70.91;102023.53;5081992;28;20380;-52
2022/05/17 03:15:04;;;;;;;13.38;4.57;;;;;;;16.21;71.08;102019.16;5075768;28;20047;-49
2022/05/17 03:17:30;;;;;;;9.75;4.20;;;;;;;16.20;71.08;102010.50;5079739;28;20050;-47
2022/05/17 03:19:56;;;;;;;11.32;4.55;;;;;;;16.25;70.97;102015.75;5080363;28;20028;-51
2022/05/17 03:22:21;;;;;;;12.65;4.47;;;;;;;16.17;70.91;102014.72;5079993;28;20017;-52
2022/05/17 03:24:47;;;;;;;9.50;4.28;;;;;;;16.11;71.79;102010.25;5081204;28;20030;-53
2022/05/17 03:27:16;;;;;;;11.88;4.68;;;;;;;16.11;71.67;102014.56;5080963;28;20047;-53
2022/05/17 03:29:41;;;;;;;12.18;4.90;;;;;;;16.12;71.51;102014.59;5084318;28;20036;-51
2022/05/17 03:32:07;;;;;;;13.20;4.32;;;;;;;16.17;71.59;102012.13;5080123;28;20124;-52
2022/05/17 03:34:32;;;;;;;10.68;4.45;;;;;;;16.09;71.71;102020.59;5073936;28;20032;-48
2022/05/17 03:36:58;;;;;;;12.80;4.78;;;;;;;16.07;71.63;102026.59;5081655;28;20128;-49
2022/05/17 03:39:23;;;;;;;10.27;4.65;;;;;;;16.06;71.85;102023.13;5077214;28;20035;-45
2022/05/17 03:41:48;;;;;;;10.77;4.60;;;;;;;16.02;72.00;102023.03;5075140;28;20520;-52
2022/05/17 03:44:14;;;;;;;10.75;4.38;;;;;;;15.99;72.40;102026.41;5077402;28;20395;-52
2022/05/17 03:46:39;;;;;;;9.50;4.40;;;;;;;16.00;72.37;102016.91;5078703;28;20234;-49
2022/05/17 03:49:04;;;;;;;10.45;4.40;;;;;;;15.99;72.42;102021.22;5076085;28;20039;-46
2022/05/17 03:51:30;;;;;;;9.73;4.38;;;;;;;15.97;72.46;102012.53;5076561;28;20040;-49
2022/05/17 03:53:55;;;;;;;12.80;4.80;;;;;;;15.89;72.88;102013.16;5079277;28;20035;-46
2022/05/17 03:56:20;;;;;;;9.65;4.60;;;;;;;15.84;73.20;102007.91;5075127;28;20034;-49
2022/05/17 03:58:46;;;;;;;13.00;4.45;;;;;;;15.83;73.04;102013.91;5079666;28;20067;-49
2022/05/17 04:01:12;;;;;;;12.80;5.13;;;;;;;15.87;73.42;102015.72;5076432;28;20036;-45
2022/05/17 04:03:38;;;;;;;11.43;4.68;;;;;;;15.91;73.37;102017.56;5076102;28;20355;-52
2022/05/17 04:06:04;;;;;;;11.02;4.65;;;;;;;15.91;73.35;102017.56;5075458;28;20499;-48
2022/05/17 04:08:30;;;;;;;12.05;4.95;;;;;;;15.94;73.49;102021.94;5076216;28;20495;-47
2022/05/17 04:10:55;;;;;;;13.48;4.80;;;;;;;15.97;73.51;102024.63;5077397;28;20032;-49
2022/05/17 04:13:21;;;;;;;10.13;4.70;;;;;;;15.95;73.45;102031.47;5075691;28;20051;-49
2022/05/17 04:15:47;;;;;;;9.77;4.63;;;;;;;15.94;73.00;102022.81;5078417;28;20028;-52
2022/05/17 04:18:12;;;;;;;12.52;4.63;;;;;;;15.92;73.26;102026.22;5076677;28;20058;-50
2022/05/17 04:20:38;;;;;;;14.05;5.07;;;;;;;15.91;73.30;102024.47;5076615;28;20024;-49
2022/05/17 04:23:03;;;;;;;12.52;5.63;;;;;;;15.94;73.49;102035.78;5044010;28;21650;-51
2022/05/17 04:25:29;;;;;;;15.63;5.40;;;;;;;15.96;73.84;102039.31;5075439;28;20436;-51
2022/05/17 04:27:55;;;;;;;11.32;5.18;;;;;;;15.99;73.22;102043.69;5073344;28;20606;-46
2022/05/17 04:30:21;;;;;;;10.00;5.30;;;;;;;16.01;74.05;102037.69;5075608;28;20081;-44
2022/05/17 04:32:47;;;;;;;10.20;5.40;;;;;;;16.07;73.61;102043.03;5071845;28;20563;-51
2022/05/17 04:35:15;;;;;;;12.82;5.60;;;;;;;16.06;73.69;102043.88;5075820;28;20035;-44
2022/05/17 04:37:40;;;;;;;14.23;5.68;;;;;;;16.08;73.18;102033.56;5073965;28;20028;-50
2022/05/17 04:40:08;;;;;;;16.38;5.75;;;;;;;16.06;73.41;102037.81;5074092;28;20152;-50
2022/05/17 04:42:43;;;;;;;13.63;5.70;;;;;;;16.08;73.46;102039.63;5064556;28;20040;-50
2022/05/17 04:45:10;;;;;;;14.25;5.50;;;;;;;16.05;73.84;102036.94;5075816;28;20127;-46
2022/05/17 04:47:38;;;;;;;12.70;5.60;;;;;;;16.09;73.72;102038.78;5077832;28;20472;-52
2022/05/17 04:50:04;;;;;;;12.52;5.47;;;;;;;16.12;73.56;102044.88;5072804;28;20028;-47
2022/05/17 04:52:29;;;;;;;9.63;5.47;;;;;;;16.12;73.86;102048.34;5075101;28;20419;-47
2022/05/17 04:54:55;;;;;;;11.88;6.20;;;;;;;16.18;73.49;102052.78;5068769;28;20097;-49
2022/05/17 04:57:20;;;;;;;12.75;6.00;;;;;;;16.22;73.32;102052.03;5072718;28;20496;-47
2022/05/17 04:59:45;;;;;;;12.32;5.75;;;;;;;16.21;73.50;102053.75;5072301;28;20035;-52
2022/05/17 05:02:11;;;;;;;11.50;6.28;;;;;;;16.25;74.10;102054.69;5077195;28;20084;-51
2022/05/17 05:04:40;;;;;;;12.57;5.38;;;;;;;16.28;73.20;102052.19;5069337;28;20059;-52
2022/05/17 05:07:05;;;;;;;10.93;5.72;;;;;;;16.28;72.76;102047.00;5068702;28;20514;-48
2022/05/17 05:09:31;;;;;;;11.57;6.03;;;;;;;16.28;73.25;102052.19;5067483;28;20118;-51
2022/05/17 05:11:57;;;;;;;12.20;6.20;;;;;;;16.29;73.56;102061.72;5070921;28;20055;-52
2022/05/17 05:14:22;;;;;;;10.98;5.88;;;;;;;16.31;73.43;102063.50;5071425;28;20012;-53
2022/05/17 05:16:48;;;;;;;15.50;5.85;;;;;;;16.37;72.53;102067.97;5076151;28;20426;-50
2022/05/17 05:19:13;;;;;;;12.63;5.88;;;;;;;16.40;73.04;102070.66;5075074;28;20036;-47
2022/05/17 05:21:38;;;;;;;12.82;6.05;;;;;;;16.41;72.76;102061.13;5072498;28;20074;-45
2022/05/17 05:24:06;;;;;;;15.30;6.00;;;;;;;16.45;72.79;102073.34;5078780;28;20563;-52
2022/05/17 05:26:32;;;;;;;13.00;5.55;;;;;;;16.44;72.62;102080.28;5079777;28;20028;-47
2022/05/17 05:28:57;;;;;;;15.95;6.03;;;;;;;16.43;72.86;102078.47;5076096;28;20043;-48
2022/05/17 05:31:23;;;;;;;13.52;6.45;;;;;;;16.43;72.66;102081.09;5075992;28;20110;-48
2022/05/17 05:33:48;;;;;;;17.65;6.40;;;;;;;16.48;73.08;102081.19;5063080;28;20039;-52
2022/05/17 05:36:14;;;;;;;12.98;6.15;;;;;;;16.49;73.33;102082.94;5072459;28;20094;-52
2022/05/17 05:38:39;;;;;;;12.98;6.75;;;;;;;16.51;73.06;102083.88;5069484;28;20055;-50
2022/05/17 05:41:05;;;;;;;12.20;6.13;;;;;;;16.55;73.03;102083.09;5073685;28;20127;-50
2022/05/17 05:43:30;;;;;;;12.43;7.22;;;;;;;16.56;73.26;102090.94;5071025;28;20176;-48
2022/05/17 05:45:55;;;;;;;14.45;6.25;;;;;;;16.61;73.24;102091.88;5070864;28;20043;-46
2022/05/17 05:48:21;;;;;;;16.52;6.35;;;;;;;16.65;73.20;102094.56;5070088;28;20385;-47
2022/05/17 05:50:47;;;;;;;16.15;6.63;;;;;;;16.68;73.21;102090.31;5070119;28;20113;-48
2022/05/17 05:53:14;;;;;;;13.82;6.05;;;;;;;16.74;72.88;102095.66;5069671;28;20531;-52
2022/05/17 05:55:40;;;;;;;15.18;6.25;;;;;;;16.74;74.75;102092.19;5070280;28;20196;-47
2022/05/17 05:58:07;;;;;;;17.65;6.60;;;;;;;16.77;74.46;102094.88;5067842;28;20054;-51
2022/05/17 06:00:33;;;;;;;14.45;6.05;;;;;;;16.76;74.33;102098.31;5071505;28;20488;-46
2022/05/17 06:02:58;;;;;;;15.27;6.38;;;;;;;16.80;74.00;102100.13;5066840;28;20117;-49
2022/05/17 06:05:25;;;;;;;13.55;5.85;;;;;;;16.79;74.56;102093.19;5068258;28;20044;-48
2022/05/17 06:07:52;;;;;;;12.70;5.50;;;;;;;16.83;73.27;102092.41;5073543;28;20040;-51
2022/05/17 06:10:18;;;;;;;16.27;6.07;;;;;;;16.82;74.14;102094.16;5068734;28;20085;-52
2022/05/17 06:12:44;;;;;;;16.05;7.20;;;;;;;16.83;74.12;102092.41;5073474;28;20024;-50
2022/05/17 06:15:10;;;;;;;17.33;6.30;;;;;;;16.87;74.50;102100.31;5069837;28;20036;-51
2022/05/17 06:17:37;;;;;;;15.55;6.05;;;;;;;16.87;75.38;102102.03;5072159;28;20032;-46
2022/05/17 06:20:03;;;;;;;11.88;5.63;;;;;;;16.86;74.61;102103.72;5075203;28;20108;-49
2022/05/17 06:22:28;;;;;;;13.02;6.18;;;;;;;16.92;74.63;102100.41;5070283;28;20070;-50
2022/05/17 06:24:54;;;;;;;14.10;5.63;;;;;;;16.93;74.67;102107.38;5069378;28;20103;-49
2022/05/17 06:27:19;;;;;;;17.08;6.10;;;;;;;16.94;74.68;102108.25;5073903;28;20392;-45
2022/05/17 06:29:44;;;;;;;14.73;6.18;;;;;;;16.95;74.89;102105.69;5070617;28;20064;-49
2022/05/17 06:32:12;;;;;;;13.13;5.30;;;;;;;16.96;75.06;102112.63;5072783;28;20492;-52
2022/05/17 06:34:38;;;;;;;13.05;5.70;;;;;;;16.96;74.64;102111.75;5079491;28;20050;-51
2022/05/17 06:37:05;;;;;;;12.32;5.30;;;;;;;16.99;74.56;102115.31;5078621;28;20036;-49
2022/05/17 06:39:31;;;;;;;11.02;5.35;;;;;;;16.99;74.21;102107.50;5080925;28;20083;-53
2022/05/17 06:41:56;;;;;;;14.52;5.93;;;;;;;17.00;73.80;102109.25;5079926;28;20059;-52
2022/05/17 06:44:23;;;;;;;11.68;5.35;;;;;;;17.01;73.03;102115.31;5075819;28;20391;-47
2022/05/17 06:46:49;;;;;;;15.50;5.75;;;;;;;17.01;74.59;102121.41;5083596;28;20107;-48
2022/05/17 06:49:14;;;;;;;12.52;5.53;;;;;;;17.01;74.07;102120.53;5083194;28;20104;-49
2022/05/17 06:51:41;;;;;;;16.65;5.80;;;;;;;17.02;75.19;102124.88;5077460;28;20032;-50
2022/05/17 06:54:07;;;;;;;13.68;5.55;;;;;;;17.05;74.73;102128.44;5080586;28;20028;-50
2022/05/17 06:56:36;;;;;;;14.98;5.95;;;;;;;17.06;75.50;102127.56;5080107;28;20036;-49
2022/05/17 06:59:02;;;;;;;14.40;6.43;;;;;;;17.08;77.53;102128.47;5081553;28;20048;-50
2022/05/17 07:01:27;;;;;;;17.13;6.60;;;;;;;17.07;76.66;102129.31;5083983;28;20062;-52
2022/05/17 07:03:54;;;;;;;13.15;6.47;;;;;;;17.09;76.76;102130.22;5080324;28;20482;-51
2022/05/17 07:06:20;;;;;;;14.05;7.03;;;;;;;17.09;76.92;102127.63;5079132;28;20062;-48
2022/05/17 07:08:45;;;;;;;11.40;6.07;;;;;;;17.12;76.14;102129.44;5084037;28;20063;-52
2022/05/17 07:13:55;;;;;;;14.95;7.00;;;;;;;17.15;76.43;102130.34;5080046;28;20046;-51
2022/05/17 07:16:21;;;;;;;13.13;6.65;;;;;;;17.19;76.89;102136.50;5078049;28;20035;-53
2022/05/17 07:18:47;;;;;;;20.13;7.20;;;;;;;17.20;77.72;102134.78;5081282;28;20546;-53
2022/05/17 07:21:14;;;;;;;22.73;6.90;;;;;;;17.19;77.55;102135.63;5081067;28;20047;-50
2022/05/17 07:23:40;;;;;;;23.20;7.30;;;;;;;17.18;77.45;102142.56;5076126;28;20036;-52
2022/05/17 07:26:07;;;;;;;23.98;7.32;;;;;;;17.22;78.81;102146.06;5081186;28;20031;-51
2022/05/17 07:28:39;;;;;;;18.13;7.30;;;;;;;17.22;79.29;102144.34;5078953;28;20037;-51
2022/05/17 07:31:04;;;;;;;23.50;7.07;;;;;;;17.24;78.65;102141.81;5078866;28;20027;-49
2022/05/17 07:33:30;;;;;;;24.77;7.50;;;;;;;17.24;78.63;102136.63;5080063;28;20496;-53
2022/05/17 07:35:55;;;;;;;19.38;7.38;;;;;;;17.25;79.28;102131.44;5077769;28;20502;-52
2022/05/17 07:38:21;;;;;;;24.23;7.07;;;;;;;17.25;79.95;102130.56;5080842;28;20774;-56
2022/05/17 07:40:47;;;;;;;25.58;7.97;;;;;;;17.25;80.90;102125.38;5080266;28;20141;-51
2022/05/17 07:43:13;;;;;;;17.23;7.18;;;;;;;17.25;81.74;102128.84;5081798;28;20491;-48
2022/05/17 07:45:39;;;;;;;15.63;7.97;;;;;;;17.26;81.52;102132.31;5081142;28;20027;-52
2022/05/17 07:48:04;;;;;;;18.58;7.55;;;;;;;17.26;80.97;102130.59;5078831;28;20030;-51
2022/05/17 07:50:30;;;;;;;16.48;8.27;;;;;;;17.29;81.54;102132.34;5081024;28;20024;-50
2022/05/17 07:52:55;;;;;;;16.60;7.90;;;;;;;17.33;81.48;102139.38;5078562;28;20543;-52
2022/05/17 07:55:21;;;;;;;17.77;7.82;;;;;;;17.34;81.95;102139.41;5078701;28;20028;-49
2022/05/17 07:57:46;;;;;;;14.38;7.80;;;;;;;17.35;81.47;102146.38;5080212;28;20040;-52
2022/05/17 08:00:12;;;;;;;18.95;9.00;;;;;;;17.37;82.43;102143.81;5077280;28;20470;-48
2022/05/17 08:02:38;;;;;;;17.52;8.82;;;;;;;17.41;81.90;102141.31;5082521;28;20056;-52
2022/05/17 08:05:03;;;;;;;16.67;8.60;;;;;;;17.42;81.46;102145.66;5078733;28;20082;-52
2022/05/17 08:07:29;;;;;;;17.05;8.80;;;;;;;17.44;81.42;102145.69;5077940;28;20111;-53
2022/05/17 08:09:54;;;;;;;16.05;8.93;;;;;;;17.49;80.64;102158.78;5078573;28;20020;-47
2022/05/17 08:12:20;;;;;;;14.00;8.63;;;;;;;17.53;80.62;102163.19;5078909;28;20047;-52
2022/05/17 08:14:47;;;;;;;30.55;8.98;;;;;;;17.55;79.45;102157.19;5082525;28;20548;-51
2022/05/17 08:17:12;;;;;;;20.95;9.27;;;;;;;17.59;80.14;102155.50;5079555;28;20028;-48
2022/05/17 08:19:38;;;;;;;24.75;8.90;;;;;;;17.63;79.54;102162.53;5080646;28;20484;-53
2022/05/17 08:22:06;;;;;;;18.13;7.78;;;;;;;17.63;79.57;102163.41;5081914;28;20027;-51
2022/05/17 08:27:31;;;;;;;17.08;7.10;;;;;;;17.67;78.72;102162.63;5081292;28;20059;-52
2022/05/17 08:27:37;;;;;;;15.68;8.30;;;;;;;17.69;80.34;102160.91;5079220;28;20032;-52
2022/05/17 08:30:15;;;;;;;16.65;7.47;;;;;;;17.74;78.46;102158.44;5078699;28;20036;-48
2022/05/17 08:35:34;;;;;;;17.00;7.78;;;;;;;17.74;78.96;102163.66;5079739;28;20066;-53
2022/05/17 08:37:59;;;;;;;20.75;6.72;;;;;;;17.74;76.66;102158.44;5078603;28;20116;-45
2022/05/17 08:40:30;;;;;;;16.02;6.20;;;;;;;17.74;75.77;102158.44;5080578;28;20556;-50
2022/05/17 08:43:04;;;;;;;10.18;5.50;;;;;;;17.78;76.55;102157.66;5078364;28;20581;-50
2022/05/17 08:45:40;;;;;;;12.55;5.43;;;;;;;17.77;74.90;102160.22;5078796;28;20032;-47
2022/05/17 08:48:14;;;;;;;15.45;5.90;;;;;;;17.79;76.35;102155.94;5081135;28;20028;-52
2022/05/17 08:50:40;;;;;;;12.45;5.43;;;;;;;17.79;76.97;102146.41;5081063;28;20085;-49
2022/05/17 08:53:12;;;;;;;14.40;5.32;;;;;;;17.82;75.87;102142.97;5081345;28;20043;-51
2022/05/17 08:55:41;;;;;;;15.77;5.30;;;;;;;17.83;75.39;102119.56;5078747;28;20507;-52
2022/05/17 08:58:21;;;;;;;14.25;5.35;;;;;;;17.89;75.56;102129.22;5079242;28;20044;-52
2022/05/17 09:01:01;;;;;;;11.77;5.57;;;;;;;17.91;75.05;102122.34;5078188;28;20031;-52
2022/05/17 09:03:34;;;;;;;15.40;5.35;;;;;;;17.94;74.80;102132.78;5079014;28;20019;-52
2022/05/17 09:06:02;;;;;;;15.32;6.07;;;;;;;17.97;74.63;102119.84;5083790;28;20039;-52
2022/05/17 09:08:41;;;;;;;11.40;5.63;;;;;;;18.07;73.87;102126.94;5081815;28;20024;-51
2022/05/17 09:11:35;;;;;;;13.45;5.50;;;;;;;18.12;73.74;102124.44;5081694;28;20036;-48
2022/05/17 09:14:07;;;;;;;11.05;4.90;;;;;;;18.11;72.18;102118.34;5079068;28;20012;-52
2022/05/17 09:16:37;;;;;;;11.90;5.13;;;;;;;18.20;72.30;102125.44;5078825;28;20093;-48
2022/05/17 09:19:02;;;;;;;11.82;4.70;;;;;;;18.26;72.56;102128.16;5079049;28;20021;-50
2022/05/17 09:21:37;;;;;;;11.10;3.78;;;;;;;18.35;71.64;102124.81;5081378;28;20046;-52
2022/05/17 09:24:06;;;;;;;8.88;3.45;;;;;;;18.35;70.66;102117.00;5075916;28;20103;-47
2022/05/17 09:26:33;;;;;;;;;;;;;;;18.46;71.10;102123.25;5077226;28;20054;-48
2022/05/17 09:29:05;;;;;;;10.98;3.22;;;;;;;18.44;69.62;102120.66;5077420;28;19915;-52
2022/05/17 09:31:35;;;;;;;8.45;2.83;;;;;;;18.47;68.79;102115.47;5080120;28;20836;-52
2022/05/17 09:34:07;;;;;;;8.50;2.53;;;;;;;18.52;68.10;102117.28;5075638;28;20028;-45
2022/05/17 09:36:48;;;;;;;9.00;2.85;;;;;;;18.60;68.61;102120.88;5073130;28;20778;-50
2022/05/17 09:39:22;;;;;;;8.32;3.13;;;;;;;18.68;68.33;102117.53;5079635;28;20395;-51
2022/05/17 09:41:49;;;;;;;10.00;2.80;;;;;;;18.76;69.26;102115.06;5075732;28;20618;-52
2022/05/17 09:44:21;;;;;;;11.80;3.25;;;;;;;18.84;68.67;102121.25;5073381;28;20020;-51
2022/05/17 09:46:56;;;;;;;9.00;2.90;;;;;;;19.00;68.52;102123.22;5079963;28;20035;-52
2022/05/17 09:52:32;;;;;;;9.65;4.10;;;;;;;19.30;68.61;102114.03;5079759;28;20454;-48
2022/05/17 09:55:13;;;;;;;12.95;4.40;;;;;;;19.56;68.02;102117.81;5075846;28;20532;-52
2022/05/17 09:58:10;;;;;;;10.27;4.32;;;;;;;19.81;69.17;102115.50;5074219;28;20123;-53
2022/05/17 10:00:50;;;;;;;14.50;4.53;;;;;;;20.08;68.47;102109.63;5077037;28;20126;-51
2022/05/17 10:03:16;;;;;;;10.80;3.88;;;;;;;20.25;66.31;102109.78;5074430;28;20028;-52
2022/05/17 10:05:49;;;;;;;13.35;4.00;;;;;;;20.33;65.55;102101.16;5082013;28;20028;-52
2022/05/17 10:08:14;;;;;;;6.72;3.65;;;;;;;20.49;65.51;102098.66;5079950;28;20606;-50
2022/05/17 10:10:45;;;;;;;11.25;4.20;;;;;;;20.60;64.25;102092.66;5082053;28;20064;-52
2022/05/17 10:13:17;;;;;;;13.63;4.75;;;;;;;20.62;64.54;102090.91;5080779;28;20040;-46
2022/05/17 10:15:46;;;;;;;10.88;4.45;;;;;;;20.70;62.16;102082.25;5080251;28;20020;-50
2022/05/17 10:18:26;;;;;;;10.50;4.25;;;;;;;20.73;62.63;102077.03;5077732;28;20035;-51
2022/05/17 10:20:56;;;;;;;8.52;4.30;;;;;;;20.74;62.32;102081.41;5077965;28;20547;-51
2022/05/17 10:23:30;;;;;;;9.32;3.92;;;;;;;20.76;60.66;102083.16;5076853;28;20086;-49
2022/05/17 10:26:13;;;;;;;8.07;4.45;;;;;;;20.79;61.46;102080.56;5081165;28;20404;-50
2022/05/17 10:28:46;;;;;;;11.25;4.28;;;;;;;20.88;60.98;102078.00;5081355;28;20035;-49
2022/05/17 10:31:20;;;;;;;7.97;4.15;;;;;;;20.90;60.42;102072.78;5075199;28;20029;-48
2022/05/17 10:34:01;;;;;;;12.77;4.10;;;;;;;20.89;60.71;102081.50;5078556;28;20039;-52
2022/05/17 10:36:34;;;;;;;10.85;3.80;;;;;;;20.84;59.94;102081.47;5078137;28;20081;-46
2022/05/17 10:39:24;;;;;;;10.43;3.90;;;;;;;20.82;60.28;102082.34;5079282;28;20605;-49
2022/05/17 10:41:50;;;;;;;11.43;4.00;;;;;;;20.78;60.21;102076.19;5074347;28;20567;-47
2022/05/17 10:44:19;;;;;;;6.22;3.63;;;;;;;20.75;59.46;102077.91;5072300;28;20196;-49
2022/05/17 10:46:55;;;;;;;7.85;3.20;;;;;;;20.77;59.32;102070.97;5072123;28;20024;-51
2022/05/17 10:49:36;;;;;;;7.55;3.47;;;;;;;20.76;58.59;102077.06;5070573;28;20505;-47
2022/05/17 10:52:13;;;;;;;8.88;3.17;;;;;;;20.84;59.06;102075.38;5069329;28;20650;-50
2022/05/17 10:54:56;;;;;;;7.05;3.08;;;;;;;20.82;58.46;102077.97;5076754;28;20039;-47
2022/05/17 10:57:28;;;;;;;6.97;3.50;;;;;;;20.85;58.99;102077.97;5070597;28;20040;-51
2022/05/17 11:00:09;;;;;;;8.80;3.70;;;;;;;20.88;59.41;102078.00;5073173;28;20496;-51
2022/05/17 11:02:49;;;;;;;7.53;3.65;;;;;;;20.95;59.39;102070.19;5074127;28;20527;-45
2022/05/17 11:05:49;;;;;;;10.00;4.80;;;;;;;21.03;59.33;102068.47;5070490;28;20032;-49
2022/05/17 11:08:52;;;;;;;10.70;4.65;;;;;;;21.21;59.71;102067.66;5073994;28;20653;-52
2022/05/17 11:11:20;;;;;;;10.80;5.13;;;;;;;21.38;58.16;102063.38;5075609;28;20032;-48
2022/05/17 11:14:03;;;;;;;11.13;5.10;;;;;;;21.54;58.97;102059.06;5079209;28;20708;-50
2022/05/17 11:16:37;;;;;;;12.77;5.47;;;;;;;21.73;56.83;102050.38;5079958;28;20511;-50
2022/05/17 11:19:17;;;;;;;13.40;5.40;;;;;;;21.97;57.86;102039.03;5076741;28;20120;-52
2022/05/17 11:21:54;;;;;;;13.40;6.55;;;;;;;22.17;57.60;102039.91;5082455;28;20106;-50
2022/05/17 11:24:42;;;;;;;13.68;7.38;;;;;;;22.38;57.18;102035.50;5073744;28;20488;-53
2022/05/17 11:27:13;;;;;;;15.38;7.05;;;;;;;22.58;56.65;102038.94;5071607;28;20036;-48
2022/05/17 11:29:53;;;;;;;12.93;7.00;;;;;;;22.71;57.37;102026.66;5077108;28;20070;-50
2022/05/17 11:32:28;;;;;;;15.25;8.10;;;;;;;22.72;56.42;102031.03;5074343;28;20024;-47
2022/05/17 11:34:57;;;;;;;12.68;7.28;;;;;;;22.80;56.10;102028.38;5072796;28;20092;-48
2022/05/17 11:37:37;;;;;;;12.60;7.30;;;;;;;22.83;55.72;102029.25;5073859;28;20077;-46